createdAt,value
2018-12-18T09:10:31.612Z,101384.95
2018-12-18T09:13:35.779Z,101390.63
2018-12-18T09:16:46.418Z,101381.51
2018-12-18T09:19:49.405Z,101379.30
2018-12-18T09:22:52.615Z,101382.42
2018-12-18T09:25:55.599Z,101375.81
2018-12-18T09:28:58.799Z,101379.28
2018-12-18T09:32:01.813Z,101376.25
2018-12-18T09:35:05.315Z,101365.33
2018-12-18T09:38:14.797Z,101372.20
2018-12-18T09:41:23.317Z,101362.70
2018-12-18T09:44:29.724Z,101364.69
2018-12-18T09:47:32.863Z,101355.93
2018-12-18T09:50:36.215Z,101350.46
2018-12-18T09:53:39.209Z,101351.20
2018-12-18T09:56:48.671Z,101347.47
2018-12-18T09:59:51.844Z,101349.11
2018-12-18T10:02:55.924Z,101349.80
2018-12-18T10:06:00.066Z,101348.34
2018-12-18T10:09:09.453Z,101346.49
2018-12-18T10:12:10.040Z,101348.61
2018-12-18T10:15:15.060Z,101352.34
2018-12-18T10:18:18.325Z,101350.95
2018-12-18T10:21:21.371Z,101351.19
2018-12-18T10:24:24.458Z,101349.86
2018-12-18T10:27:27.542Z,101345.44
2018-12-18T10:30:30.784Z,101351.53
2018-12-18T10:33:33.931Z,101352.37
2018-12-18T10:36:40.715Z,101348.40
2018-12-18T10:39:43.887Z,101345.30
2018-12-18T10:42:47.915Z,101348.81
2018-12-18T10:45:52.128Z,101348.81
2018-12-18T10:48:55.160Z,101348.02
2018-12-18T10:51:59.223Z,101347.07
2018-12-18T10:55:03.432Z,101339.13
2018-12-18T10:58:10.933Z,101336.48
2018-12-18T11:01:18.354Z,101332.44
2018-12-18T11:04:21.430Z,101331.98
2018-12-18T11:07:27.593Z,101330.10
2018-12-18T11:10:30.704Z,101333.17
2018-12-18T11:13:34.808Z,101325.60
2018-12-18T11:16:39.439Z,101330.83
2018-12-18T11:19:42.399Z,101321.94
2018-12-18T11:22:46.538Z,101321.48
2018-12-18T11:25:49.712Z,101320.55
2018-12-18T11:28:52.739Z,101318.31
2018-12-18T11:31:55.953Z,101312.53
2018-12-18T11:34:59.095Z,101307.61
2018-12-18T11:38:03.223Z,101300.54
2018-12-18T11:41:08.386Z,101293.39
2018-12-18T11:44:12.485Z,101292.45
2018-12-18T11:47:15.559Z,101292.83
2018-12-18T11:50:18.665Z,101287.95
2018-12-18T11:53:21.787Z,101281.70
2018-12-18T11:56:24.837Z,101281.70
2018-12-18T11:59:27.969Z,101277.73
2018-12-18T12:02:31.262Z,101272.05
2018-12-18T12:05:35.331Z,101272.44
2018-12-18T12:08:38.342Z,101256.63
2018-12-18T12:11:41.315Z,101256.06
2018-12-18T12:14:44.792Z,101249.44
2018-12-18T12:17:48.349Z,101250.69
2018-12-18T12:20:51.418Z,101245.80
2018-12-18T12:23:54.612Z,101244.48
2018-12-18T12:27:02.982Z,101238.23
2018-12-18T12:30:12.619Z,101235.59
2018-12-18T12:33:15.666Z,101232.48
2018-12-18T12:36:18.914Z,101231.47
2018-12-18T12:39:22.042Z,101227.49
2018-12-18T12:42:25.251Z,101219.39
2018-12-18T12:45:28.375Z,101214.55
2018-12-18T12:50:45.411Z,101208.95
2018-12-18T12:53:48.578Z,101205.66
2018-12-18T12:56:51.696Z,101192.33
2018-12-18T12:59:54.760Z,101188.28
2018-12-18T13:02:58.973Z,101192.13
2018-12-18T13:06:02.118Z,101193.84
2018-12-18T13:09:07.777Z,101192.92
2018-12-18T13:12:10.808Z,101194.70
2018-12-18T13:15:14.013Z,101197.28
2018-12-18T13:18:17.081Z,101187.47
2018-12-18T13:21:21.245Z,101190.04
2018-12-18T13:24:24.387Z,101188.22
2018-12-18T13:27:28.728Z,101185.04
2018-12-18T13:30:31.912Z,101185.95
2018-12-18T13:33:34.901Z,101187.98
2018-12-18T13:36:42.993Z,101183.56
2018-12-18T13:39:43.233Z,101186.96
2018-12-18T13:42:47.423Z,101179.80
2018-12-18T13:45:51.664Z,101177.16
2018-12-18T13:48:55.667Z,101171.36
2018-12-18T13:51:58.870Z,101177.98
2018-12-18T13:55:01.931Z,101180.56
2018-12-18T13:58:05.040Z,101184.53
2018-12-18T14:01:08.333Z,101179.72
2018-12-18T14:04:11.335Z,101181.05
2018-12-18T14:07:14.435Z,101176.58
2018-12-18T14:10:17.646Z,101173.55
2018-12-18T14:13:21.608Z,101171.84
2018-12-18T14:16:24.755Z,101162.16
2018-12-18T14:19:27.842Z,101166.55
2018-12-18T14:22:30.896Z,101169.28
2018-12-18T14:25:34.027Z,101168.41
2018-12-18T14:28:37.102Z,101167.09
2018-12-18T14:31:40.205Z,101166.71
2018-12-18T14:34:44.451Z,101158.76
2018-12-18T14:37:48.550Z,101159.70
2018-12-18T14:40:51.763Z,101159.70
2018-12-18T14:43:54.824Z,101167.58
2018-12-18T14:46:57.907Z,101167.33
2018-12-18T14:50:00.976Z,101168.13
2018-12-18T14:53:04.243Z,101169.23
2018-12-18T14:56:07.384Z,101168.41
2018-12-18T14:59:10.603Z,101161.11
2018-12-18T15:02:13.855Z,101161.57
2018-12-18T15:05:17.726Z,101167.44
2018-12-18T15:08:20.983Z,101166.48
2018-12-18T15:11:24.195Z,101169.52
2018-12-18T15:14:27.343Z,101165.54
2018-12-18T15:17:30.439Z,101170.30
2018-12-18T15:20:33.569Z,101166.78
2018-12-18T15:23:36.722Z,101168.56
2018-12-18T15:26:39.888Z,101165.54
2018-12-18T15:29:44.059Z,101167.25
2018-12-18T15:32:48.207Z,101172.16
2018-12-18T15:35:51.404Z,101176.22
2018-12-18T15:38:54.534Z,101174.05
2018-12-18T15:41:57.619Z,101174.97
2018-12-18T15:45:00.844Z,101165.70
2018-12-18T15:48:03.891Z,101160.40
2018-12-18T15:51:06.988Z,101156.84
2018-12-18T15:54:10.019Z,101162.22
2018-12-18T15:57:13.107Z,101156.50
2018-12-18T16:00:16.341Z,101150.38
2018-12-18T16:03:19.474Z,101147.56
2018-12-18T16:06:22.670Z,101148.56
2018-12-18T16:09:25.763Z,101158.39
2018-12-18T16:12:28.830Z,101165.93
2018-12-18T16:15:31.830Z,101159.80
2018-12-18T16:18:35.103Z,101155.41
2018-12-18T16:21:39.081Z,101147.09
2018-12-18T16:24:42.157Z,101154.09
2018-12-18T16:27:45.227Z,101159.58
2018-12-18T16:30:48.483Z,101159.95
2018-12-18T16:33:51.647Z,101156.06
2018-12-18T16:36:55.851Z,101160.48
2018-12-18T16:39:58.826Z,101161.44
2018-12-18T16:43:02.076Z,101152.70
2018-12-18T16:46:05.381Z,101163.62
2018-12-18T16:49:09.356Z,101172.32
2018-12-18T16:52:12.427Z,101178.41
2018-12-18T16:55:15.630Z,101180.03
2018-12-18T16:58:18.644Z,101184.38
2018-12-18T17:01:22.751Z,101181.53
2018-12-18T17:04:25.837Z,101181.00
2018-12-18T17:07:29.711Z,101184.03
2018-12-18T17:10:32.946Z,101176.87
2018-12-18T17:13:36.009Z,101176.30
2018-12-18T17:16:38.990Z,101169.14
2018-12-18T17:19:42.086Z,101175.20
2018-12-18T17:22:45.207Z,101181.28
2018-12-18T17:25:48.357Z,101185.26
2018-12-18T17:28:51.459Z,101179.80
2018-12-18T17:31:54.558Z,101176.73
2018-12-18T17:34:57.871Z,101187.34
2018-12-18T17:38:01.926Z,101197.33
2018-12-18T17:41:04.986Z,101207.47
2018-12-18T17:44:08.047Z,101205.73
2018-12-18T17:47:12.181Z,101196.45
2018-12-18T17:50:15.510Z,101199.11
2018-12-18T17:53:18.540Z,101195.55
2018-12-18T17:56:21.639Z,101199.89
2018-12-18T17:59:25.908Z,101197.62
2018-12-18T18:02:29.057Z,101194.44
2018-12-18T18:05:32.139Z,101193.11
2018-12-18T18:08:35.433Z,101181.34
2018-12-18T18:11:38.546Z,101182.16
2018-12-18T18:14:41.630Z,101177.84
2018-12-18T18:17:44.839Z,101173.87
2018-12-18T18:20:47.810Z,101170.47
2018-12-18T18:23:50.915Z,101165.25
2018-12-18T18:26:57.260Z,101156.51
2018-12-18T18:30:01.522Z,101159.64
2018-12-18T18:33:04.671Z,101151.29
2018-12-18T18:36:08.791Z,101145.98
2018-12-18T18:39:11.888Z,101142.96
2018-12-18T18:42:15.141Z,101136.88
2018-12-18T18:45:18.315Z,101137.66
2018-12-18T18:48:21.353Z,101138.04
2018-12-18T18:51:25.579Z,101142.42
2018-12-18T18:54:28.591Z,101140.61
2018-12-18T18:57:31.765Z,101139.99
2018-12-18T19:00:35.919Z,101138.83
2018-12-18T19:03:38.887Z,101137.05
2018-12-18T19:06:42.128Z,101129.55
2018-12-18T19:09:47.326Z,101130.42
2018-12-18T19:12:54.591Z,101136.09
2018-12-18T19:15:57.748Z,101135.23
2018-12-18T19:19:00.895Z,101131.64
2018-12-18T19:22:05.011Z,101126.91
2018-12-18T19:25:09.117Z,101128.98
2018-12-18T19:28:12.208Z,101124.17
2018-12-18T19:31:15.320Z,101122.36
2018-12-18T19:34:18.443Z,101123.23
2018-12-18T19:37:22.619Z,101116.60
2018-12-18T19:40:25.898Z,101108.73
2018-12-18T19:43:28.920Z,101106.25
2018-12-18T19:46:31.982Z,101098.14
2018-12-18T19:49:35.055Z,101101.57
2018-12-18T19:52:38.158Z,101103.81
2018-12-18T19:55:43.364Z,101099.00
2018-12-18T19:58:48.496Z,101095.57
2018-12-18T20:01:51.637Z,101086.64
2018-12-18T20:04:56.874Z,101081.70
2018-12-18T20:08:00.096Z,101073.45
2018-12-18T20:11:05.916Z,101057.56
2018-12-18T20:14:10.043Z,101053.59
2018-12-18T20:17:13.282Z,101048.45
2018-12-18T20:20:16.436Z,101043.61
2018-12-18T20:23:19.543Z,101039.93
2018-12-18T20:26:23.059Z,101047.42
2018-12-18T20:29:26.163Z,101037.20
2018-12-18T20:32:29.308Z,101038.23
2018-12-18T20:35:32.295Z,101033.30
2018-12-18T20:38:36.419Z,101027.09
2018-12-18T20:41:39.522Z,101024.90
2018-12-18T20:44:42.609Z,101026.97
2018-12-18T20:47:45.695Z,101018.66
2018-12-18T20:50:49.813Z,101012.60
2018-12-18T20:53:53.038Z,101015.25
2018-12-18T20:56:56.148Z,101006.52
2018-12-18T20:59:59.439Z,101006.60
2018-12-18T21:03:02.761Z,101001.76
2018-12-18T21:06:06.059Z,100990.78
2018-12-18T21:09:10.038Z,100980.11
2018-12-18T21:12:13.296Z,100981.89
2018-12-18T21:15:16.604Z,100978.11
2018-12-18T21:18:19.895Z,100961.64
2018-12-18T21:21:23.196Z,100951.63
2018-12-18T21:24:26.487Z,100942.41
2018-12-18T21:27:29.763Z,100934.45
2018-12-18T21:30:34.286Z,100932.72
2018-12-18T21:33:39.185Z,100931.89
2018-12-18T21:36:43.040Z,100923.94
2018-12-18T21:39:46.267Z,100917.78
2018-12-18T21:42:49.542Z,100914.59
2018-12-18T21:45:53.905Z,100915.18
2018-12-18T21:48:58.221Z,100911.16
2018-12-18T21:52:01.483Z,100918.91
2018-12-18T21:55:04.903Z,100926.06
2018-12-18T21:58:08.061Z,100936.66
2018-12-18T22:01:11.355Z,100932.47
2018-12-18T22:04:14.567Z,100930.77
2018-12-18T22:07:18.731Z,100911.86
2018-12-18T22:10:22.035Z,100915.05
2018-12-18T22:13:25.200Z,100904.46
2018-12-18T22:16:29.500Z,100903.59
2018-12-18T22:19:33.845Z,100893.09
2018-12-18T22:22:38.599Z,100896.69
2018-12-18T22:25:41.732Z,100898.95
2018-12-18T22:28:44.884Z,100887.05
2018-12-18T22:31:47.924Z,100886.27
2018-12-18T22:34:52.040Z,100877.94
2018-12-18T22:37:56.129Z,100872.19
2018-12-18T22:41:02.902Z,100871.33
2018-12-18T22:44:06.947Z,100872.27
2018-12-18T22:47:10.115Z,100860.44
2018-12-18T22:50:13.200Z,100859.03
2018-12-18T22:53:16.482Z,100859.12
2018-12-18T22:56:19.526Z,100855.69
2018-12-18T22:59:22.585Z,100855.23
2018-12-18T23:02:25.877Z,100843.78
2018-12-18T23:05:28.994Z,100835.38
2018-12-18T23:08:32.136Z,100825.70
2018-12-18T23:11:35.329Z,100818.72
2018-12-18T23:14:38.639Z,100830.17
2018-12-18T23:17:41.929Z,100822.31
2018-12-18T23:20:45.047Z,100836.09
2018-12-18T23:23:49.268Z,100833.44
2018-12-18T23:26:52.351Z,100826.36
2018-12-18T23:29:56.526Z,100828.72
2018-12-18T23:32:59.759Z,100826.83
2018-12-18T23:36:03.802Z,100808.38
2018-12-18T23:39:07.929Z,100783.81
2018-12-18T23:42:13.568Z,100790.72
2018-12-18T23:45:17.139Z,100783.73
2018-12-18T23:48:20.336Z,100779.34
2018-12-18T23:51:23.348Z,100766.61
2018-12-18T23:54:26.578Z,100760.82
2018-12-18T23:57:29.715Z,100762.72
